Time;durP1;ratioP1;P1;durP2;ratioP2;P2;SDS_P1;SDS_P2;PMS_P1;PMS_P2;Temp;Humidity;BMP_temperature;BMP_pressure;BME280_temperature;BME280_humidity;BME280_pressure;Samples;Min_cycle;Max_cycle;Signal;HPM_P1;HPM_P2
2021/11/26 00:00:44;;;;;;;1.30;0.40;;;;;;;;;;5014702;28;20076;-86
2021/11/26 00:03:11;;;;;;;2.22;0.35;;;;;;;;;;5016393;28;20493;-87
2021/11/26 00:05:37;;;;;;;1.27;0.35;;;;;;;;;;5013945;28;20061;-86
2021/11/26 00:08:04;;;;;;;2.97;0.40;;;;;;;;;;5012548;28;20061;-86
2021/11/26 00:10:30;;;;;;;2.45;0.40;;;;;;;;;;5011808;28;20057;-85
2021/11/26 00:13:00;;;;;;;4.43;0.40;;;;;;;;;;5013709;28;20056;-85
2021/11/26 00:17:58;;;;;;;1.73;0.47;;;;;;;;;;5016887;28;20457;-85
2021/11/26 00:20:24;;;;;;;1.08;0.20;;;;;;;;;;5015335;28;21212;-86
2021/11/26 00:22:51;;;;;;;0.85;0.20;;;;;;;;;;5015191;28;20119;-87
2021/11/26 00:25:17;;;;;;;1.70;0.40;;;;;;;;;;5012528;28;20072;-86
2021/11/26 00:27:44;;;;;;;0.90;0.28;;;;;;;;;;5014459;28;20134;-86
2021/11/26 00:30:10;;;;;;;0.93;0.38;;;;;;;;;;5016794;28;20073;-87
2021/11/26 00:32:37;;;;;;;1.05;0.40;;;;;;;;;;5014435;28;20057;-87
2021/11/26 00:35:04;;;;;;;0.32;0.20;;;;;;;;;;5012633;28;20164;-86
2021/11/26 00:37:30;;;;;;;0.88;0.38;;;;;;;;;;5014089;28;20463;-86
2021/11/26 00:39:57;;;;;;;1.80;0.60;;;;;;;;;;5013899;28;20119;-87
2021/11/26 00:42:23;;;;;;;1.45;0.25;;;;;;;;;;5015665;28;20062;-86
2021/11/26 00:44:50;;;;;;;1.85;0.50;;;;;;;;;;5012889;28;20064;-87
2021/11/26 00:47:16;;;;;;;2.63;0.60;;;;;;;;;;4993364;28;20572;-86
2021/11/26 00:49:43;;;;;;;1.60;0.30;;;;;;;;;;5012332;28;20405;-85
2021/11/26 00:52:09;;;;;;;2.28;0.55;;;;;;;;;;5010887;28;20060;-86
2021/11/26 00:54:36;;;;;;;1.00;0.40;;;;;;;;;;5012831;28;20057;-87
2021/11/26 00:57:07;;;;;;;1.42;0.38;;;;;;;;;;5011281;28;20070;-87
2021/11/26 00:59:33;;;;;;;1.63;0.40;;;;;;;;;;5010550;28;20077;-86
2021/11/26 01:01:59;;;;;;;1.05;0.30;;;;;;;;;;5012871;28;20062;-84
2021/11/26 01:04:26;;;;;;;1.45;0.55;;;;;;;;;;5012573;28;20061;-86
2021/11/26 01:06:53;;;;;;;1.90;0.40;;;;;;;;;;5007335;28;20042;-89
2021/11/26 01:09:20;;;;;;;2.38;0.47;;;;;;;;;;4994838;28;20068;-89
2021/11/26 01:11:46;;;;;;;0.77;0.28;;;;;;;;;;5010434;28;20497;-88
2021/11/26 01:14:13;;;;;;;0.82;0.30;;;;;;;;;;5014449;28;20057;-89
2021/11/26 01:16:39;;;;;;;0.55;0.20;;;;;;;;;;5013023;28;20068;-88
2021/11/26 01:19:06;;;;;;;2.40;0.55;;;;;;;;;;5000942;28;20076;-87
2021/11/26 01:21:32;;;;;;;2.20;0.30;;;;;;;;;;4996387;28;20096;-88
2021/11/26 01:23:59;;;;;;;1.73;0.50;;;;;;;;;;5009977;28;20454;-89
2021/11/26 01:26:25;;;;;;;1.13;0.40;;;;;;;;;;5006408;28;21851;-87
2021/11/26 01:28:52;;;;;;;1.75;0.35;;;;;;;;;;5007190;28;20062;-88
2021/11/26 01:31:18;;;;;;;1.33;0.30;;;;;;;;;;5012834;28;20068;-89
2021/11/26 01:33:46;;;;;;;1.05;0.30;;;;;;;;;;5005357;28;20065;-89
2021/11/26 01:36:12;;;;;;;0.50;0.30;;;;;;;;;;5009617;28;20066;-88
2021/11/26 01:38:39;;;;;;;0.88;0.50;;;;;;;;;;5013856;28;20081;-89
2021/11/26 01:41:09;;;;;;;2.92;0.40;;;;;;;;;;5006230;28;20054;-88
2021/11/26 01:43:36;;;;;;;0.90;0.35;;;;;;;;;;5008108;28;20066;-88
2021/11/26 01:46:09;;;;;;;0.40;0.20;;;;;;;;;;5010619;28;20079;-86
2021/11/26 01:48:37;;;;;;;0.52;0.20;;;;;;;;;;4992260;28;20053;-84
2021/11/26 01:51:03;;;;;;;1.08;0.28;;;;;;;;;;5010611;28;20085;-86
2021/11/26 01:53:30;;;;;;;0.52;0.20;;;;;;;;;;5007776;28;20394;-86
2021/11/26 01:55:57;;;;;;;1.38;0.43;;;;;;;;;;5012630;28;20061;-86
2021/11/26 01:58:23;;;;;;;0.93;0.32;;;;;;;;;;5012144;28;20069;-85
2021/11/26 02:00:50;;;;;;;1.40;0.20;;;;;;;;;;5008662;28;20057;-86
2021/11/26 02:03:16;;;;;;;0.98;0.30;;;;;;;;;;5013534;28;20068;-86
2021/11/26 02:05:43;;;;;;;0.80;0.30;;;;;;;;;;5004642;28;20065;-86
2021/11/26 02:08:10;;;;;;;1.50;0.20;;;;;;;;;;5008862;28;20054;-86
2021/11/26 02:10:37;;;;;;;0.38;0.20;;;;;;;;;;5012422;28;20068;-87
2021/11/26 02:13:04;;;;;;;0.32;0.20;;;;;;;;;;5017418;28;20068;-87
2021/11/26 02:15:31;;;;;;;0.30;0.17;;;;;;;;;;5018257;28;20103;-87
2021/11/26 02:17:59;;;;;;;1.70;0.35;;;;;;;;;;5012035;28;20070;-86
2021/11/26 02:20:27;;;;;;;1.17;0.38;;;;;;;;;;5013042;28;21265;-88
2021/11/26 02:22:54;;;;;;;0.68;0.28;;;;;;;;;;5012357;28;20031;-88
2021/11/26 02:25:21;;;;;;;1.70;0.40;;;;;;;;;;5008964;28;20050;-88
2021/11/26 02:27:48;;;;;;;1.40;0.40;;;;;;;;;;5007550;28;20092;-88
2021/11/26 02:30:18;;;;;;;1.67;0.30;;;;;;;;;;5007958;28;20074;-88
2021/11/26 02:32:46;;;;;;;2.78;0.20;;;;;;;;;;4997037;28;20062;-87
2021/11/26 02:35:12;;;;;;;2.03;0.40;;;;;;;;;;4993033;28;20115;-87
2021/11/26 02:37:40;;;;;;;0.68;0.30;;;;;;;;;;5013247;28;20069;-87
2021/11/26 02:40:07;;;;;;;0.95;0.20;;;;;;;;;;5011036;28;20069;-86
2021/11/26 02:42:35;;;;;;;1.08;0.20;;;;;;;;;;5016378;28;20050;-87
2021/11/26 02:45:02;;;;;;;1.42;0.30;;;;;;;;;;5015953;28;20072;-87
2021/11/26 02:47:28;;;;;;;1.23;0.43;;;;;;;;;;5016541;28;20057;-87
2021/11/26 02:49:54;;;;;;;1.35;0.32;;;;;;;;;;5014716;28;20091;-86
2021/11/26 02:52:21;;;;;;;0.93;0.40;;;;;;;;;;5013587;28;20077;-87
2021/11/26 02:54:47;;;;;;;1.30;0.38;;;;;;;;;;5012336;28;20588;-87
2021/11/26 02:57:13;;;;;;;0.85;0.30;;;;;;;;;;5006534;28;20073;-86
2021/11/26 02:59:40;;;;;;;1.60;0.30;;;;;;;;;;5010455;28;20170;-87
2021/11/26 03:02:06;;;;;;;1.60;0.20;;;;;;;;;;5013328;28;20049;-86
2021/11/26 03:04:33;;;;;;;0.52;0.28;;;;;;;;;;5009188;28;20112;-87
2021/11/26 03:07:00;;;;;;;0.40;0.20;;;;;;;;;;5010911;28;20138;-87
2021/11/26 03:09:26;;;;;;;1.20;0.32;;;;;;;;;;5014315;28;20494;-87
2021/11/26 03:11:53;;;;;;;2.28;0.30;;;;;;;;;;4996440;28;20057;-87
2021/11/26 03:14:20;;;;;;;1.20;0.30;;;;;;;;;;5009161;28;20095;-86
2021/11/26 03:16:46;;;;;;;0.20;0.20;;;;;;;;;;5015276;28;20091;-85
2021/11/26 03:19:12;;;;;;;0.98;0.20;;;;;;;;;;5009069;28;20552;-87
2021/11/26 03:21:40;;;;;;;0.55;0.20;;;;;;;;;;5003772;28;20065;-86
2021/11/26 03:24:07;;;;;;;2.53;0.57;;;;;;;;;;5010097;28;20030;-86
2021/11/26 03:26:33;;;;;;;0.98;0.32;;;;;;;;;;5019473;28;20096;-87
2021/11/26 03:29:00;;;;;;;0.85;0.30;;;;;;;;;;5018141;28;20064;-82
2021/11/26 03:31:26;;;;;;;0.75;0.17;;;;;;;;;;5016598;28;20061;-87
2021/11/26 03:33:52;;;;;;;1.05;0.32;;;;;;;;;;5013516;28;20057;-86
2021/11/26 03:36:19;;;;;;;0.60;0.20;;;;;;;;;;5012333;28;20617;-87
2021/11/26 03:38:45;;;;;;;0.85;0.30;;;;;;;;;;5018195;28;20091;-85
2021/11/26 03:41:11;;;;;;;1.40;0.20;;;;;;;;;;5017928;28;20068;-86
2021/11/26 03:43:38;;;;;;;0.43;0.13;;;;;;;;;;5012979;28;20061;-87
2021/11/26 03:46:05;;;;;;;0.22;0.13;;;;;;;;;;5012047;28;20475;-85
2021/11/26 03:48:31;;;;;;;0.43;0.20;;;;;;;;;;5009082;28;20041;-87
2021/11/26 03:50:58;;;;;;;0.15;0.10;;;;;;;;;;5009962;28;20058;-86
2021/11/26 03:53:24;;;;;;;0.60;0.20;;;;;;;;;;5014625;28;20077;-87
2021/11/26 03:55:51;;;;;;;1.25;0.40;;;;;;;;;;5011100;28;20061;-87
2021/11/26 03:58:17;;;;;;;1.48;0.17;;;;;;;;;;5006906;28;20474;-86
2021/11/26 04:00:43;;;;;;;0.82;0.30;;;;;;;;;;5012749;28;20080;-85
2021/11/26 04:03:10;;;;;;;0.28;0.10;;;;;;;;;;5010572;28;20057;-86
2021/11/26 04:05:36;;;;;;;0.60;0.22;;;;;;;;;;5011994;28;20054;-85
2021/11/26 04:08:03;;;;;;;0.55;0.25;;;;;;;;;;5012230;28;20041;-86
2021/11/26 04:10:29;;;;;;;0.13;0.10;;;;;;;;;;5015489;28;20119;-86
2021/11/26 04:12:56;;;;;;;0.08;0.03;;;;;;;;;;5010198;28;20069;-85
2021/11/26 04:15:23;;;;;;;1.25;0.30;;;;;;;;;;5009077;28;20058;-85
2021/11/26 04:17:51;;;;;;;1.67;0.30;;;;;;;;;;5003981;28;20112;-85
2021/11/26 04:20:19;;;;;;;1.23;0.40;;;;;;;;;;5011283;28;20143;-85
2021/11/26 04:22:46;;;;;;;0.45;0.28;;;;;;;;;;4995382;28;20088;-87
2021/11/26 04:25:14;;;;;;;0.30;0.10;;;;;;;;;;4989204;28;20049;-86
2021/11/26 04:27:41;;;;;;;1.23;0.30;;;;;;;;;;5012977;28;20687;-87
2021/11/26 04:30:08;;;;;;;0.45;0.10;;;;;;;;;;5012842;28;20454;-86
2021/11/26 04:32:35;;;;;;;0.40;0.20;;;;;;;;;;5012479;28;20038;-86
2021/11/26 04:35:01;;;;;;;0.88;0.20;;;;;;;;;;5015269;28;20418;-86
2021/11/26 04:37:28;;;;;;;0.55;0.20;;;;;;;;;;5015323;28;20701;-87
2021/11/26 04:39:54;;;;;;;1.23;0.20;;;;;;;;;;5013756;28;20068;-87
2021/11/26 04:42:21;;;;;;;1.20;0.20;;;;;;;;;;5011126;28;20057;-87
2021/11/26 04:44:47;;;;;;;0.88;0.20;;;;;;;;;;5013112;28;20462;-87
2021/11/26 04:47:13;;;;;;;2.30;0.30;;;;;;;;;;5009211;28;20065;-83
2021/11/26 04:49:40;;;;;;;0.52;0.20;;;;;;;;;;5012614;28;20127;-81
2021/11/26 04:52:06;;;;;;;0.40;0.20;;;;;;;;;;5013527;28;20172;-80
2021/11/26 04:54:33;;;;;;;0.25;0.20;;;;;;;;;;5012367;28;20722;-79
2021/11/26 04:56:59;;;;;;;0.10;0.08;;;;;;;;;;5011139;28;20033;-79
2021/11/26 04:59:26;;;;;;;1.55;0.30;;;;;;;;;;5004803;28;20249;-79
2021/11/26 05:01:52;;;;;;;2.38;0.50;;;;;;;;;;5008819;28;20057;-80
2021/11/26 05:04:18;;;;;;;0.60;0.20;;;;;;;;;;5005755;28;20064;-79
2021/11/26 05:06:45;;;;;;;1.48;0.22;;;;;;;;;;5009270;28;20033;-79
2021/11/26 05:09:12;;;;;;;0.73;0.20;;;;;;;;;;5006509;28;20042;-79
2021/11/26 05:11:41;;;;;;;1.33;0.25;;;;;;;;;;4995872;28;20584;-81
2021/11/26 05:14:09;;;;;;;0.35;0.20;;;;;;;;;;5000967;28;20567;-81
2021/11/26 05:16:35;;;;;;;1.27;0.45;;;;;;;;;;5007917;28;20062;-82
2021/11/26 05:19:02;;;;;;;0.52;0.30;;;;;;;;;;5002836;28;20127;-81
2021/11/26 05:21:28;;;;;;;0.63;0.30;;;;;;;;;;5008189;28;20136;-83
2021/11/26 05:23:55;;;;;;;0.70;0.30;;;;;;;;;;5010015;28;20065;-79
2021/11/26 05:26:21;;;;;;;1.65;0.30;;;;;;;;;;5008917;28;20069;-81
2021/11/26 05:28:48;;;;;;;1.70;0.35;;;;;;;;;;5007014;28;20033;-82
2021/11/26 05:31:15;;;;;;;0.32;0.20;;;;;;;;;;5007914;28;20065;-82
2021/11/26 05:33:41;;;;;;;0.77;0.20;;;;;;;;;;5010012;28;20038;-79
2021/11/26 05:36:07;;;;;;;1.35;0.30;;;;;;;;;;4990771;28;20092;-83
2021/11/26 05:38:34;;;;;;;1.20;0.35;;;;;;;;;;4981293;28;20127;-83
2021/11/26 05:41:00;;;;;;;1.55;0.40;;;;;;;;;;5002810;28;20061;-82
2021/11/26 05:43:27;;;;;;;0.35;0.20;;;;;;;;;;5007582;28;20061;-83
2021/11/26 05:45:53;;;;;;;1.55;0.30;;;;;;;;;;5010544;28;20124;-81
2021/11/26 05:48:20;;;;;;;2.00;0.57;;;;;;;;;;5009574;28;21742;-83
2021/11/26 05:50:46;;;;;;;0.43;0.20;;;;;;;;;;4999590;28;20073;-82
2021/11/26 05:53:13;;;;;;;0.68;0.30;;;;;;;;;;5009884;28;20044;-82
2021/11/26 05:55:40;;;;;;;0.50;0.30;;;;;;;;;;5009602;28;20096;-83
2021/11/26 05:58:06;;;;;;;1.05;0.35;;;;;;;;;;5007172;28;20109;-83
2021/11/26 06:00:33;;;;;;;1.35;0.30;;;;;;;;;;5005123;28;20069;-83
2021/11/26 06:03:00;;;;;;;0.85;0.22;;;;;;;;;;5016167;28;20061;-80
2021/11/26 06:05:26;;;;;;;1.08;0.50;;;;;;;;;;5014371;28;20426;-82
2021/11/26 06:07:53;;;;;;;1.20;0.30;;;;;;;;;;5015361;28;20145;-77
2021/11/26 06:10:20;;;;;;;0.98;0.30;;;;;;;;;;5012182;28;20110;-78
2021/11/26 06:12:47;;;;;;;1.67;0.25;;;;;;;;;;5008969;28;20060;-78
2021/11/26 06:15:15;;;;;;;0.45;0.20;;;;;;;;;;5013663;28;20071;-78
2021/11/26 06:17:41;;;;;;;0.35;0.22;;;;;;;;;;5004752;28;20149;-78
2021/11/26 06:20:09;;;;;;;1.58;0.40;;;;;;;;;;5013785;28;20049;-78
2021/11/26 06:22:36;;;;;;;4.03;0.52;;;;;;;;;;5018215;28;20070;-79
2021/11/26 06:25:03;;;;;;;0.70;0.30;;;;;;;;;;5016061;28;20057;-78
2021/11/26 06:27:29;;;;;;;1.75;0.40;;;;;;;;;;5012120;28;20057;-78
2021/11/26 06:29:56;;;;;;;0.95;0.43;;;;;;;;;;5011983;28;20061;-79
2021/11/26 06:32:23;;;;;;;2.20;0.20;;;;;;;;;;5012690;28;20053;-78
2021/11/26 06:34:50;;;;;;;13.45;1.08;;;;;;;;;;5010218;28;20038;-78
2021/11/26 06:37:17;;;;;;;0.73;0.20;;;;;;;;;;5009520;28;20080;-78
2021/11/26 06:39:43;;;;;;;1.10;0.40;;;;;;;;;;5012250;28;20065;-80
2021/11/26 06:42:09;;;;;;;1.65;0.40;;;;;;;;;;5011329;28;20825;-80
2021/11/26 06:44:36;;;;;;;1.63;0.30;;;;;;;;;;5004462;28;20066;-80
2021/11/26 06:47:04;;;;;;;1.77;0.32;;;;;;;;;;4986325;28;20054;-82
2021/11/26 06:49:30;;;;;;;0.73;0.35;;;;;;;;;;5016220;28;20068;-80
2021/11/26 06:51:57;;;;;;;6.22;0.52;;;;;;;;;;5015039;28;20509;-79
2021/11/26 06:54:23;;;;;;;1.92;0.25;;;;;;;;;;5010347;28;20057;-80
2021/11/26 06:56:49;;;;;;;0.90;0.20;;;;;;;;;;5011825;28;20524;-80
2021/11/26 06:59:16;;;;;;;2.80;0.20;;;;;;;;;;5009034;28;20122;-80
2021/11/26 07:01:42;;;;;;;1.95;0.30;;;;;;;;;;5009595;28;20266;-81
2021/11/26 07:04:11;;;;;;;0.63;0.45;;;;;;;;;;5015220;28;20066;-81
2021/11/26 07:06:37;;;;;;;0.77;0.20;;;;;;;;;;5008689;28;20076;-80
2021/11/26 07:09:04;;;;;;;1.40;0.52;;;;;;;;;;5008229;28;20062;-80
2021/11/26 07:11:31;;;;;;;1.23;0.63;;;;;;;;;;5011667;28;20072;-80
2021/11/26 07:13:57;;;;;;;1.30;0.30;;;;;;;;;;5007793;28;20490;-80
2021/11/26 07:16:24;;;;;;;0.75;0.30;;;;;;;;;;5009696;28;20083;-80
2021/11/26 07:18:50;;;;;;;0.98;0.30;;;;;;;;;;5009148;28;20058;-80
2021/11/26 07:21:17;;;;;;;1.77;0.32;;;;;;;;;;5008787;28;20486;-79
2021/11/26 07:23:43;;;;;;;1.45;0.50;;;;;;;;;;5008923;28;20065;-79
2021/11/26 07:26:09;;;;;;;0.98;0.30;;;;;;;;;;5007738;28;20076;-80
2021/11/26 07:28:36;;;;;;;0.40;0.20;;;;;;;;;;5008616;28;20073;-81
2021/11/26 07:31:02;;;;;;;0.00;0.00;;;;;;;;;;5010291;28;20033;-79
2021/11/26 07:33:29;;;;;;;0.63;0.20;;;;;;;;;;5011920;28;20061;-80
2021/11/26 07:35:55;;;;;;;0.70;0.40;;;;;;;;;;4992597;28;20502;-80
2021/11/26 07:38:22;;;;;;;0.90;0.40;;;;;;;;;;4999767;28;20065;-80
2021/11/26 07:40:49;;;;;;;0.65;0.30;;;;;;;;;;4991815;28;20088;-80
2021/11/26 07:43:16;;;;;;;0.50;0.30;;;;;;;;;;5003637;28;20126;-80
2021/11/26 07:45:43;;;;;;;0.45;0.20;;;;;;;;;;5008850;28;20135;-80
2021/11/26 07:48:09;;;;;;;0.35;0.20;;;;;;;;;;5007398;28;20054;-79
2021/11/26 07:50:35;;;;;;;0.52;0.30;;;;;;;;;;4989680;28;20042;-79
2021/11/26 07:53:02;;;;;;;0.57;0.30;;;;;;;;;;5007745;28;20045;-79
2021/11/26 07:55:28;;;;;;;1.60;0.30;;;;;;;;;;5007504;28;20419;-79
2021/11/26 07:57:55;;;;;;;2.60;0.32;;;;;;;;;;5012421;28;20061;-79
2021/11/26 08:00:21;;;;;;;0.30;0.15;;;;;;;;;;5004992;28;20062;-79
2021/11/26 08:02:48;;;;;;;0.50;0.28;;;;;;;;;;5007039;28;20454;-79
2021/11/26 08:05:15;;;;;;;1.38;0.30;;;;;;;;;;5011835;28;20057;-79
2021/11/26 08:07:41;;;;;;;0.77;0.30;;;;;;;;;;5000158;28;20506;-79
2021/11/26 08:10:09;;;;;;;2.58;0.40;;;;;;;;;;5007118;28;20169;-80
2021/11/26 08:12:36;;;;;;;0.85;0.25;;;;;;;;;;5007894;28;20706;-79
2021/11/26 08:15:05;;;;;;;0.20;0.20;;;;;;;;;;4990487;28;20561;-79
2021/11/26 08:17:31;;;;;;;0.30;0.30;;;;;;;;;;5010156;28;20057;-79
2021/11/26 08:19:58;;;;;;;0.82;0.30;;;;;;;;;;5007005;28;20152;-78
2021/11/26 08:22:25;;;;;;;0.95;0.30;;;;;;;;;;5004842;28;20057;-79
2021/11/26 08:24:51;;;;;;;0.20;0.10;;;;;;;;;;5009731;28;20540;-79
2021/11/26 08:27:17;;;;;;;0.45;0.20;;;;;;;;;;5005906;28;20042;-78
2021/11/26 08:29:44;;;;;;;1.45;0.20;;;;;;;;;;5017000;28;20053;-79
2021/11/26 08:32:10;;;;;;;0.82;0.32;;;;;;;;;;5006341;28;20100;-80
2021/11/26 08:34:37;;;;;;;0.47;0.10;;;;;;;;;;5007240;28;20073;-80
2021/11/26 08:37:03;;;;;;;0.20;0.10;;;;;;;;;;5007603;28;20736;-79
2021/11/26 08:39:30;;;;;;;0.10;0.10;;;;;;;;;;5007281;28;20072;-80
2021/11/26 08:41:56;;;;;;;0.82;0.20;;;;;;;;;;4990714;28;20060;-79
2021/11/26 08:44:23;;;;;;;0.80;0.40;;;;;;;;;;5013838;28;20111;-80
2021/11/26 08:46:49;;;;;;;0.30;0.22;;;;;;;;;;5006199;28;20624;-80
2021/11/26 08:49:16;;;;;;;0.50;0.20;;;;;;;;;;5006822;28;20057;-80
2021/11/26 08:51:44;;;;;;;0.93;0.30;;;;;;;;;;4998471;28;20344;-80
2021/11/26 08:54:11;;;;;;;1.20;0.30;;;;;;;;;;5002772;28;20038;-80
2021/11/26 08:56:37;;;;;;;1.08;0.43;;;;;;;;;;5011151;28;20061;-80
2021/11/26 08:59:04;;;;;;;1.55;0.35;;;;;;;;;;5006333;28;20053;-79
2021/11/26 09:01:31;;;;;;;1.60;0.50;;;;;;;;;;5016654;28;20747;-79
2021/11/26 09:03:58;;;;;;;0.43;0.20;;;;;;;;;;5008405;28;20681;-80
2021/11/26 09:06:24;;;;;;;0.70;0.20;;;;;;;;;;5003339;28;20056;-81
2021/11/26 09:08:51;;;;;;;0.32;0.30;;;;;;;;;;5002443;28;20077;-82
2021/11/26 09:11:17;;;;;;;0.70;0.30;;;;;;;;;;5005576;28;20058;-81
2021/11/26 09:13:44;;;;;;;0.93;0.32;;;;;;;;;;5004290;28;20050;-81
2021/11/26 09:16:11;;;;;;;1.17;0.28;;;;;;;;;;4974982;28;20096;-81
2021/11/26 09:18:38;;;;;;;0.88;0.30;;;;;;;;;;5011407;28;20057;-81
2021/11/26 09:21:04;;;;;;;0.52;0.30;;;;;;;;;;5011154;28;20112;-81
2021/11/26 09:23:31;;;;;;;0.50;0.40;;;;;;;;;;5013991;28;20054;-80
2021/11/26 09:25:58;;;;;;;0.90;0.43;;;;;;;;;;5009929;28;20119;-80
2021/11/26 09:28:24;;;;;;;1.15;0.55;;;;;;;;;;4986306;28;20395;-81
2021/11/26 09:30:51;;;;;;;0.70;0.43;;;;;;;;;;5014305;28;20054;-81
2021/11/26 09:33:18;;;;;;;0.65;0.30;;;;;;;;;;5015967;28;20103;-81
2021/11/26 09:35:45;;;;;;;1.30;0.40;;;;;;;;;;5009003;28;20077;-81
2021/11/26 09:38:11;;;;;;;0.60;0.30;;;;;;;;;;5011994;28;20510;-82
2021/11/26 09:40:38;;;;;;;4.35;0.50;;;;;;;;;;5011068;28;20066;-81
2021/11/26 09:43:06;;;;;;;1.73;0.30;;;;;;;;;;5000801;28;20061;-81
2021/11/26 09:45:33;;;;;;;0.50;0.40;;;;;;;;;;5010603;28;20069;-81
2021/11/26 09:48:00;;;;;;;1.20;0.40;;;;;;;;;;5008687;28;20038;-82
2021/11/26 09:50:29;;;;;;;2.13;0.40;;;;;;;;;;5017294;28;22585;-82
2021/11/26 09:53:08;;;;;;;0.93;0.50;;;;;;;;;;5010859;28;20095;-82
2021/11/26 09:55:34;;;;;;;1.25;0.30;;;;;;;;;;5010676;28;20135;-81
2021/11/26 09:58:01;;;;;;;0.95;0.40;;;;;;;;;;5013581;28;20062;-81
2021/11/26 10:00:27;;;;;;;1.95;0.82;;;;;;;;;;5009503;28;21237;-81
2021/11/26 10:02:55;;;;;;;1.00;0.40;;;;;;;;;;5008839;28;20057;-82
2021/11/26 10:05:21;;;;;;;1.40;0.40;;;;;;;;;;5010355;28;21027;-81
2021/11/26 10:07:52;;;;;;;1.55;0.50;;;;;;;;;;5005724;28;20065;-81
2021/11/26 10:10:22;;;;;;;0.87;0.30;;;;;;;;;;4989873;28;20622;-81
2021/11/26 10:13:01;;;;;;;2.88;0.65;;;;;;;;;;5013095;28;20058;-81
2021/11/26 10:15:28;;;;;;;2.17;0.50;;;;;;;;;;5007348;28;20906;-81
2021/11/26 10:18:04;;;;;;;1.58;0.57;;;;;;;;;;5013139;28;20102;-81
2021/11/26 10:20:30;;;;;;;1.80;0.60;;;;;;;;;;4988824;28;20101;-81
2021/11/26 10:22:56;;;;;;;1.75;0.43;;;;;;;;;;5008019;28;20058;-81
2021/11/26 10:25:23;;;;;;;1.85;0.40;;;;;;;;;;5005491;28;20050;-81
2021/11/26 10:27:57;;;;;;;1.45;0.60;;;;;;;;;;5008063;28;20050;-81
2021/11/26 10:30:32;;;;;;;2.60;0.63;;;;;;;;;;4991247;28;20077;-81
2021/11/26 10:33:01;;;;;;;1.65;0.20;;;;;;;;;;5008249;28;20095;-81
2021/11/26 10:35:29;;;;;;;0.73;0.40;;;;;;;;;;5006408;28;21292;-81
2021/11/26 10:37:58;;;;;;;2.30;0.57;;;;;;;;;;5009301;28;20072;-81
2021/11/26 10:40:26;;;;;;;0.45;0.40;;;;;;;;;;5006648;28;20073;-81
2021/11/26 10:42:53;;;;;;;2.38;0.60;;;;;;;;;;5009174;28;20080;-80
2021/11/26 10:45:37;;;;;;;1.95;0.60;;;;;;;;;;4997132;28;20069;-80
2021/11/26 10:59:23;;;;;;;0.98;0.57;;;;;;;;;;4993691;28;20162;-80
2021/11/26 11:01:50;;;;;;;1.92;0.43;;;;;;;;;;4989887;28;20042;-80
2021/11/26 11:04:17;;;;;;;0.85;0.35;;;;;;;;;;4987701;28;20066;-80
2021/11/26 11:06:44;;;;;;;1.27;0.40;;;;;;;;;;4987819;28;20141;-80
2021/11/26 11:09:11;;;;;;;0.80;0.40;;;;;;;;;;4984055;28;20054;-80
2021/11/26 11:11:49;;;;;;;1.60;0.60;;;;;;;;;;4990645;28;20066;-80
2021/11/26 11:14:17;;;;;;;1.10;0.35;;;;;;;;;;4993825;28;20070;-80
2021/11/26 11:16:48;;;;;;;1.52;0.68;;;;;;;;;;4987725;28;20155;-81
2021/11/26 11:19:14;;;;;;;1.67;0.52;;;;;;;;;;4986253;28;20074;-82
2021/11/26 11:21:41;;;;;;;1.38;0.60;;;;;;;;;;4989238;28;20065;-80
2021/11/26 11:24:08;;;;;;;1.42;0.50;;;;;;;;;;4986379;28;20580;-80
2021/11/26 11:26:34;;;;;;;2.22;0.70;;;;;;;;;;4984009;28;20069;-80
2021/11/26 11:29:01;;;;;;;2.03;0.80;;;;;;;;;;4988314;28;20069;-81
2021/11/26 11:31:27;;;;;;;1.50;0.50;;;;;;;;;;4984932;28;20065;-81
2021/11/26 11:33:54;;;;;;;1.17;0.40;;;;;;;;;;4986326;28;20085;-81
2021/11/26 11:36:20;;;;;;;1.95;0.55;;;;;;;;;;4987549;28;20592;-81
2021/11/26 11:38:56;;;;;;;1.05;0.60;;;;;;;;;;4988610;28;20504;-81
2021/11/26 11:41:23;;;;;;;2.45;0.50;;;;;;;;;;4986588;28;20104;-81
2021/11/26 11:43:49;;;;;;;1.58;0.50;;;;;;;;;;4986498;28;20081;-81
2021/11/26 11:46:17;;;;;;;0.90;0.45;;;;;;;;;;4987951;28;20054;-82
2021/11/26 11:48:46;;;;;;;0.85;0.45;;;;;;;;;;4989187;28;20506;-82
2021/11/26 11:51:33;;;;;;;1.48;0.70;;;;;;;;;;4974020;28;20093;-82
2021/11/26 11:54:07;;;;;;;2.22;0.68;;;;;;;;;;4985958;28;20062;-81
2021/11/26 11:56:54;;;;;;;1.27;0.65;;;;;;;;;;4987168;28;20054;-81
2021/11/26 11:59:24;;;;;;;1.38;0.55;;;;;;;;;;5003974;28;20069;-81
2021/11/26 12:01:51;;;;;;;1.40;0.60;;;;;;;;;;5011370;28;20045;-83
2021/11/26 12:04:19;;;;;;;2.70;0.80;;;;;;;;;;5013439;28;20054;-82
2021/11/26 12:06:47;;;;;;;2.03;0.50;;;;;;;;;;5005272;28;20073;-82
2021/11/26 12:09:23;;;;;;;1.02;0.50;;;;;;;;;;5005131;28;20072;-80
2021/11/26 12:11:55;;;;;;;2.40;0.57;;;;;;;;;;5005036;28;20062;-81
2021/11/26 12:14:22;;;;;;;2.65;0.55;;;;;;;;;;5005394;28;20222;-82
2021/11/26 12:17:14;;;;;;;0.85;0.38;;;;;;;;;;5008802;28;20057;-82
2021/11/26 12:19:42;;;;;;;0.80;0.50;;;;;;;;;;5006732;28;20095;-81
2021/11/26 12:22:15;;;;;;;1.75;0.68;;;;;;;;;;5005715;28;20470;-81
2021/11/26 12:24:45;;;;;;;1.83;0.60;;;;;;;;;;5009649;28;20501;-82
2021/11/26 12:27:21;;;;;;;1.63;0.60;;;;;;;;;;5006016;28;20096;-80
2021/11/26 12:29:50;;;;;;;2.00;0.60;;;;;;;;;;5007437;28;20061;-82
2021/11/26 12:32:18;;;;;;;3.10;0.60;;;;;;;;;;5004100;28;20053;-81
2021/11/26 12:34:46;;;;;;;1.08;0.50;;;;;;;;;;5006720;28;20034;-81
2021/11/26 12:37:33;;;;;;;2.30;0.75;;;;;;;;;;5006877;28;20548;-81
2021/11/26 12:40:01;;;;;;;0.98;0.50;;;;;;;;;;5011798;28;20072;-81
2021/11/26 12:42:27;;;;;;;1.70;0.52;;;;;;;;;;5005861;28;21470;-80
2021/11/26 12:44:58;;;;;;;1.65;0.50;;;;;;;;;;5011692;28;20209;-81
2021/11/26 12:47:34;;;;;;;0.75;0.30;;;;;;;;;;5004395;28;20068;-81
2021/11/26 12:53:05;;;;;;;2.10;0.70;;;;;;;;;;5005268;28;21337;-80
2021/11/26 12:55:32;;;;;;;2.13;0.70;;;;;;;;;;5006287;28;20030;-82
2021/11/26 12:57:58;;;;;;;1.45;0.70;;;;;;;;;;5005700;28;20069;-82
2021/11/26 13:00:24;;;;;;;0.85;0.43;;;;;;;;;;4988445;28;20459;-81
2021/11/26 13:02:51;;;;;;;2.40;0.70;;;;;;;;;;5008661;28;20053;-79
2021/11/26 13:05:19;;;;;;;2.03;0.50;;;;;;;;;;4989960;28;20066;-75
2021/11/26 13:07:46;;;;;;;2.70;0.68;;;;;;;;;;5003983;28;20061;-78
2021/11/26 13:10:19;;;;;;;2.90;0.68;;;;;;;;;;5006974;28;20065;-77
2021/11/26 13:12:51;;;;;;;1.70;0.75;;;;;;;;;;5005587;28;20096;-77
2021/11/26 13:15:23;;;;;;;1.75;0.57;;;;;;;;;;4999092;28;20073;-77
2021/11/26 13:17:53;;;;;;;1.60;0.70;;;;;;;;;;5014462;28;20053;-78
2021/11/26 13:20:23;;;;;;;1.45;0.60;;;;;;;;;;5006814;28;20526;-77
2021/11/26 13:22:54;;;;;;;1.10;0.50;;;;;;;;;;5007743;28;20069;-77
2021/11/26 13:25:33;;;;;;;1.73;0.70;;;;;;;;;;4999778;28;20030;-77
2021/11/26 13:28:02;;;;;;;1.80;0.70;;;;;;;;;;5004249;28;20080;-77
2021/11/26 13:30:33;;;;;;;2.05;0.68;;;;;;;;;;5002466;28;20435;-76
2021/11/26 13:32:59;;;;;;;;;;;;;;;;;;5007498;28;20080;-77
2021/11/26 13:35:27;;;;;;;1.98;0.50;;;;;;;;;;5009628;28;19972;-74
2021/11/26 13:37:55;;;;;;;1.67;0.70;;;;;;;;;;5006605;28;20053;-73
2021/11/26 13:40:21;;;;;;;1.70;0.70;;;;;;;;;;5002642;28;20130;-73
2021/11/26 13:42:54;;;;;;;3.17;0.77;;;;;;;;;;5005387;28;20050;-74
2021/11/26 13:45:29;;;;;;;1.50;0.60;;;;;;;;;;5002058;28;20057;-76
2021/11/26 13:47:56;;;;;;;2.42;0.70;;;;;;;;;;5004271;28;20124;-76
2021/11/26 13:50:22;;;;;;;2.60;0.60;;;;;;;;;;5002880;28;20149;-75
2021/11/26 13:52:50;;;;;;;2.50;0.70;;;;;;;;;;5003792;28;20124;-75
2021/11/26 13:55:17;;;;;;;1.70;0.50;;;;;;;;;;5004801;28;20116;-75
2021/11/26 13:57:44;;;;;;;4.00;0.70;;;;;;;;;;5005538;28;20058;-78
2021/11/26 14:00:12;;;;;;;2.90;0.70;;;;;;;;;;5004375;28;20135;-79
2021/11/26 14:02:52;;;;;;;1.85;0.50;;;;;;;;;;5004953;28;20624;-79
2021/11/26 14:05:32;;;;;;;3.50;0.70;;;;;;;;;;4981458;28;20096;-80
2021/11/26 14:08:06;;;;;;;2.90;0.60;;;;;;;;;;5008254;28;20038;-81
2021/11/26 14:10:33;;;;;;;2.28;0.73;;;;;;;;;;5005828;28;20053;-80
2021/11/26 14:13:01;;;;;;;2.88;0.90;;;;;;;;;;4992224;28;20042;-79
2021/11/26 14:15:27;;;;;;;1.50;0.55;;;;;;;;;;4990329;28;20029;-80
2021/11/26 14:17:54;;;;;;;2.55;0.70;;;;;;;;;;4988827;28;20089;-80
2021/11/26 14:20:23;;;;;;;1.23;0.60;;;;;;;;;;4996649;28;20108;-79
2021/11/26 14:22:51;;;;;;;1.52;0.50;;;;;;;;;;5010327;28;20111;-80
2021/11/26 14:25:18;;;;;;;1.85;0.43;;;;;;;;;;5010340;28;20678;-78
2021/11/26 14:27:46;;;;;;;1.40;0.50;;;;;;;;;;5006630;28;20076;-79
2021/11/26 14:30:21;;;;;;;1.38;0.57;;;;;;;;;;5007721;28;20115;-79
2021/11/26 14:33:08;;;;;;;1.27;0.40;;;;;;;;;;5011175;28;20517;-78
2021/11/26 14:35:36;;;;;;;2.35;0.60;;;;;;;;;;5007115;28;20590;-78
2021/11/26 14:38:12;;;;;;;2.47;0.60;;;;;;;;;;5010166;28;20087;-77
2021/11/26 14:40:40;;;;;;;0.85;0.45;;;;;;;;;;5006461;28;21630;-80
2021/11/26 14:43:27;;;;;;;1.05;0.50;;;;;;;;;;5007939;28;20116;-79
2021/11/26 14:46:08;;;;;;;1.95;0.50;;;;;;;;;;5007823;28;20102;-80
2021/11/26 14:48:43;;;;;;;5.10;0.90;;;;;;;;;;5008727;28;20496;-80
2021/11/26 14:51:13;;;;;;;1.92;0.60;;;;;;;;;;5007566;28;20412;-80
2021/11/26 14:53:40;;;;;;;2.60;0.70;;;;;;;;;;5010258;28;20049;-80
2021/11/26 14:56:08;;;;;;;2.72;0.57;;;;;;;;;;5011139;28;20030;-80
2021/11/26 14:58:34;;;;;;;3.47;0.68;;;;;;;;;;5012532;28;20042;-80
2021/11/26 15:01:01;;;;;;;1.33;0.60;;;;;;;;;;5008989;28;20128;-80
2021/11/26 15:03:27;;;;;;;1.38;0.75;;;;;;;;;;5006596;28;20486;-80